Time;durP1;ratioP1;P1;durP2;ratioP2;P2;SDS_P1;SDS_P2;PMS_P1;PMS_P2;Temp;Humidity;BMP_temperature;BMP_pressure;BME280_temperature;BME280_humidity;BME280_pressure;Samples;Min_cycle;Max_cycle;Signal;HPM_P1;HPM_P2
2023/08/19 00:00:13;;;;;;;8.18;2.60;;;;;;;21.08;100.00;99963.50;4788132;29;20055;-90
2023/08/19 00:02:42;;;;;;;1.23;1.13;;;;;;;20.99;100.00;99944.75;4790451;29;20070;-90
2023/08/19 00:05:08;;;;;;;3.58;2.22;;;;;;;21.05;100.00;99951.19;4800196;29;20047;-91
2023/08/19 00:07:34;;;;;;;1.55;1.45;;;;;;;20.74;100.00;99928.84;4800791;29;20733;-91
2023/08/19 00:10:04;;;;;;;2.78;2.45;;;;;;;20.95;100.00;99955.53;4790181;29;20126;-90
2023/08/19 00:12:30;;;;;;;2.13;1.40;;;;;;;20.91;100.00;99957.81;4782093;29;20464;-91
2023/08/19 00:14:55;;;;;;;2.42;2.10;;;;;;;20.86;100.00;99947.34;4786428;29;20043;-90
2023/08/19 00:17:24;;;;;;;1.60;1.50;;;;;;;20.81;100.00;99950.91;4769197;29;20054;-90
2023/08/19 00:19:51;;;;;;;2.42;2.10;;;;;;;20.80;100.00;99960.63;4789972;29;20099;-91
2023/08/19 00:22:19;;;;;;;4.22;1.48;;;;;;;20.72;100.00;99951.13;4781771;29;20504;-90
2023/08/19 00:24:45;;;;;;;4.57;3.03;;;;;;;20.73;100.00;99932.94;4799680;29;20150;-90
2023/08/19 00:27:12;;;;;;;1.70;1.27;;;;;;;20.67;100.00;99940.59;4785709;29;20054;-91
2023/08/19 00:29:38;;;;;;;1.98;1.80;;;;;;;20.55;100.00;99933.41;4784823;29;20051;-91
2023/08/19 00:32:04;;;;;;;1.85;1.75;;;;;;;20.65;100.00;99962.91;4769065;29;20100;-91
2023/08/19 00:34:39;;;;;;;1.65;1.55;;;;;;;20.55;100.00;99958.75;4771847;29;20050;-90
2023/08/19 00:37:07;;;;;;;2.63;1.95;;;;;;;20.54;100.00;99962.88;4806622;29;20078;-89
2023/08/19 00:39:33;;;;;;;1.67;1.48;;;;;;;20.48;100.00;99952.34;4816662;29;20046;-90
2023/08/19 00:41:58;;;;;;;3.20;1.73;;;;;;;20.54;100.00;99960.06;4817843;29;20050;-90
2023/08/19 00:44:24;;;;;;;0.80;0.80;;;;;;;20.63;100.00;99980.31;4800968;29;20062;-89
2023/08/19 00:46:50;;;;;;;1.60;1.08;;;;;;;20.67;100.00;99974.44;4795395;29;20035;-89
2023/08/19 00:49:16;;;;;;;1.48;1.38;;;;;;;20.62;100.00;99961.13;4808246;29;20050;-90
2023/08/19 00:51:42;;;;;;;1.13;1.08;;;;;;;20.71;100.00;99977.78;4815302;29;20114;-89
2023/08/19 00:54:07;;;;;;;3.15;2.65;;;;;;;20.72;100.00;99982.91;4814437;29;20135;-89
2023/08/19 00:56:33;;;;;;;2.22;1.98;;;;;;;20.72;100.00;99979.31;4813758;29;20161;-88
2023/08/19 00:58:58;;;;;;;1.05;0.95;;;;;;;20.60;100.00;99964.44;4799645;29;20508;-89
2023/08/19 01:02:01;;;;;;;1.33;1.23;;;;;;;20.56;100.00;99982.84;5068957;23;20028;-90
2023/08/19 01:04:27;;;;;;;1.48;1.38;;;;;;;20.48;100.00;99974.91;4814417;24;20051;-88
2023/08/19 01:06:59;;;;;;;1.45;1.35;;;;;;;20.58;100.00;99992.34;4786109;29;20042;-88
2023/08/19 01:09:24;;;;;;;2.10;1.90;;;;;;;20.57;100.00;99981.59;4786721;29;20508;-88
2023/08/19 01:12:10;;;;;;;1.50;1.23;;;;;;;20.50;100.00;99984.91;4787045;29;20312;-88
2023/08/19 01:15:04;;;;;;;2.58;1.58;;;;;;;20.50;100.00;99982.06;4782136;29;20054;-87
2023/08/19 01:17:30;;;;;;;1.98;1.88;;;;;;;20.36;100.00;99966.91;4782713;29;20460;-88
2023/08/19 01:19:57;;;;;;;2.53;1.90;;;;;;;20.45;100.00;99977.97;4789881;29;20039;-87
2023/08/19 01:23:04;;;;;;;2.60;2.10;;;;;;;20.29;100.00;99953.31;4785370;29;20047;-88
2023/08/19 01:25:31;;;;;;;2.85;1.25;;;;;;;20.40;100.00;99970.25;4787647;29;20388;-87
2023/08/19 01:28:01;;;;;;;3.10;1.38;;;;;;;20.40;100.00;99981.53;4794645;29;20053;-88
2023/08/19 01:30:30;;;;;;;1.67;1.58;;;;;;;20.29;100.00;99968.16;4782180;29;20120;-88
2023/08/19 01:32:56;;;;;;;2.45;1.88;;;;;;;20.34;100.00;99978.66;4771538;29;20038;-88
2023/08/19 01:35:22;;;;;;;5.18;1.90;;;;;;;20.30;100.00;99969.69;4794746;29;20058;-88
2023/08/19 01:37:55;;;;;;;1.77;1.45;;;;;;;20.32;100.00;99978.41;4786873;29;20122;-88
2023/08/19 01:40:22;;;;;;;1.88;1.70;;;;;;;20.38;100.00;99975.63;4803485;29;20047;-87
2023/08/19 01:42:48;;;;;;;1.20;1.10;;;;;;;20.32;100.00;99967.16;4787808;29;20053;-88
2023/08/19 01:45:14;;;;;;;4.20;2.28;;;;;;;20.38;100.00;99975.63;4798806;29;20605;-88
2023/08/19 01:47:42;;;;;;;1.08;1.02;;;;;;;20.39;100.00;99977.94;4789584;29;20054;-87
2023/08/19 01:50:08;;;;;;;2.55;2.05;;;;;;;20.35;100.00;99994.31;4788161;29;20591;-88
2023/08/19 01:52:34;;;;;;;2.17;1.63;;;;;;;20.26;100.00;99979.66;4799058;29;20054;-87
2023/08/19 01:55:00;;;;;;;2.95;2.20;;;;;;;20.30;100.00;99997.09;4783512;29;20031;-88
2023/08/19 01:57:27;;;;;;;1.67;1.58;;;;;;;20.02;100.00;99951.84;4774740;29;20141;-88
2023/08/19 01:59:56;;;;;;;1.75;1.50;;;;;;;20.28;100.00;99983.50;4787489;29;20051;-88
2023/08/19 02:02:22;;;;;;;2.42;1.83;;;;;;;20.40;100.00;99996.38;4795278;29;20047;-88
2023/08/19 02:04:48;;;;;;;1.58;1.27;;;;;;;20.35;100.00;99983.03;4786824;29;20445;-87
2023/08/19 02:07:13;;;;;;;2.00;1.80;;;;;;;20.35;100.00;99991.47;4803743;29;20051;-88
2023/08/19 02:09:40;;;;;;;5.20;1.38;;;;;;;20.41;100.00;99986.66;4820677;29;20073;-88
2023/08/19 02:12:06;;;;;;;3.05;2.28;;;;;;;20.30;100.00;99975.31;4820411;29;20123;-88
2023/08/19 02:14:31;;;;;;;2.88;1.60;;;;;;;20.31;100.00;99976.88;4818938;29;20042;-88
2023/08/19 02:17:00;;;;;;;2.05;1.63;;;;;;;20.25;100.00;99959.16;4801515;29;20098;-87
2023/08/19 02:19:25;;;;;;;1.75;1.40;;;;;;;20.28;100.00;99975.03;4808927;29;20054;-88
2023/08/19 02:21:51;;;;;;;1.40;1.30;;;;;;;20.29;100.00;99973.81;4805130;29;20046;-87
2023/08/19 02:24:17;;;;;;;1.98;1.30;;;;;;;20.16;100.00;99967.81;4815275;29;20057;-88
2023/08/19 02:26:43;;;;;;;2.25;2.00;;;;;;;20.10;100.00;99955.75;4823762;29;20042;-87
2023/08/19 02:29:08;;;;;;;3.72;2.83;;;;;;;19.99;100.00;99966.94;4802773;29;20042;-87
2023/08/19 02:31:36;;;;;;;2.75;1.98;;;;;;;19.98;100.00;99971.81;4826839;29;20090;-88
2023/08/19 02:34:01;;;;;;;1.05;1.00;;;;;;;19.82;100.00;99957.63;4800410;29;20053;-88
2023/08/19 02:36:27;;;;;;;2.03;1.85;;;;;;;19.91;100.00;99965.88;4812800;29;20054;-87
2023/08/19 02:38:53;;;;;;;1.30;1.17;;;;;;;19.88;100.00;99962.03;4805979;29;20046;-88
2023/08/19 02:41:18;;;;;;;2.33;1.98;;;;;;;19.64;100.00;99941.16;4802777;29;20055;-88
2023/08/19 02:43:44;;;;;;;1.33;1.20;;;;;;;19.88;100.00;99964.06;4804724;29;20044;-95
2023/08/19 02:46:09;;;;;;;1.30;1.20;;;;;;;19.90;100.00;99961.53;4821481;29;20057;-88
2023/08/19 02:48:35;;;;;;;1.83;1.63;;;;;;;19.86;100.00;99966.59;4816019;29;20051;-87
2023/08/19 02:51:00;;;;;;;1.48;1.38;;;;;;;19.82;100.00;99960.44;4810041;29;20424;-87
2023/08/19 02:53:28;;;;;;;3.17;1.48;;;;;;;19.69;100.00;99943.25;4817706;29;20054;-88
2023/08/19 02:55:55;;;;;;;1.45;1.23;;;;;;;19.83;100.00;99954.31;4805641;29;20114;-88
2023/08/19 02:58:21;;;;;;;2.95;2.45;;;;;;;19.89;100.00;99965.63;4819099;29;21128;-88
2023/08/19 03:00:50;;;;;;;2.38;1.95;;;;;;;19.83;100.00;99959.19;4801203;29;20186;-87
2023/08/19 03:03:15;;;;;;;1.75;1.42;;;;;;;19.68;100.00;99934.03;4819959;29;20126;-87
2023/08/19 03:05:41;;;;;;;6.85;2.08;;;;;;;19.92;100.00;99968.22;4812989;29;20466;-87
2023/08/19 03:08:09;;;;;;;3.92;1.65;;;;;;;19.90;100.00;99958.69;4803831;29;20049;-87
2023/08/19 03:10:40;;;;;;;5.90;3.50;;;;;;;19.82;100.00;99946.38;4819034;29;20542;-88
2023/08/19 03:13:07;;;;;;;1.45;1.30;;;;;;;19.83;100.00;99943.06;4814225;29;20073;-87
2023/08/19 03:15:34;;;;;;;2.03;1.83;;;;;;;19.92;100.00;99956.16;4803265;29;20039;-88
2023/08/19 03:17:59;;;;;;;1.67;1.52;;;;;;;19.92;100.00;99953.34;4790152;29;20046;-88
2023/08/19 03:20:25;;;;;;;1.98;1.77;;;;;;;19.95;100.00;99949.53;4805121;29;20082;-88
2023/08/19 03:22:51;;;;;;;1.27;0.70;;;;;;;19.90;100.00;99953.06;4831716;29;20049;-87
2023/08/19 03:25:16;;;;;;;1.33;1.23;;;;;;;19.93;100.00;99952.09;4803728;29;20103;-88
2023/08/19 03:27:43;;;;;;;2.63;1.35;;;;;;;19.92;100.00;99956.16;4812882;29;20512;-88
2023/08/19 03:30:09;;;;;;;3.10;2.45;;;;;;;19.85;100.00;99948.22;4812281;29;20129;-88
2023/08/19 03:32:36;;;;;;;2.10;1.40;;;;;;;19.81;100.00;99933.59;4804008;29;20077;-87
2023/08/19 03:35:02;;;;;;;2.35;2.15;;;;;;;19.88;100.00;99950.00;4805529;29;20085;-88
2023/08/19 03:37:28;;;;;;;5.63;1.63;;;;;;;19.79;100.00;99944.56;4805699;29;20050;-89
2023/08/19 03:39:54;;;;;;;1.52;1.42;;;;;;;19.69;100.00;99938.38;4805154;29;20046;-88
2023/08/19 03:42:19;;;;;;;2.08;1.85;;;;;;;19.60;100.00;99935.00;4815724;29;20656;-88
2023/08/19 03:44:45;;;;;;;2.45;2.20;;;;;;;19.66;100.00;99949.84;4799486;29;20195;-88
2023/08/19 03:47:13;;;;;;;2.13;1.92;;;;;;;19.63;100.00;99948.06;4821337;29;20138;-89
2023/08/19 03:49:40;;;;;;;0.80;0.80;;;;;;;19.58;100.00;99937.53;4806747;29;20110;-89
2023/08/19 03:52:06;;;;;;;1.50;1.40;;;;;;;19.65;100.00;99953.97;4817867;29;20102;-90
2023/08/19 03:54:33;;;;;;;2.08;1.60;;;;;;;19.62;100.00;99950.09;4806633;29;20057;-88
2023/08/19 03:56:58;;;;;;;2.55;2.35;;;;;;;19.53;100.00;99928.53;4818244;29;20046;-88
2023/08/19 03:59:24;;;;;;;10.93;2.70;;;;;;;19.42;100.00;99925.66;4824938;29;20042;-88
2023/08/19 04:01:50;;;;;;;3.75;2.13;;;;;;;19.58;100.00;99960.03;4819283;29;20049;-89
2023/08/19 04:04:17;;;;;;;2.30;2.03;;;;;;;19.51;100.00;99956.41;4792100;29;20057;-88
2023/08/19 04:06:42;;;;;;;1.30;0.85;;;;;;;19.37;100.00;99936.84;4771807;29;20050;-89
2023/08/19 04:09:08;;;;;;;2.42;2.22;;;;;;;19.40;100.00;99945.06;4803349;29;20095;-89
2023/08/19 04:11:34;;;;;;;4.25;2.58;;;;;;;19.52;100.00;99965.63;4795143;29;20042;-88
2023/08/19 04:14:00;;;;;;;1.52;1.42;;;;;;;19.59;100.00;99973.59;4802799;29;20051;-88
2023/08/19 04:16:26;;;;;;;1.98;1.30;;;;;;;19.49;100.00;99987.06;4802648;29;20163;-89
2023/08/19 04:18:51;;;;;;;1.35;1.10;;;;;;;19.52;100.00;99986.09;4786295;29;20042;-88
2023/08/19 04:21:17;;;;;;;2.13;1.83;;;;;;;19.49;100.00;100008.84;4785867;29;20043;-88
2023/08/19 04:23:43;;;;;;;3.55;2.10;;;;;;;19.32;100.00;99972.09;4805659;29;20129;-87
2023/08/19 04:26:09;;;;;;;2.33;1.92;;;;;;;19.49;100.00;99995.53;4780112;29;20043;-88
2023/08/19 04:28:35;;;;;;;1.02;0.98;;;;;;;19.53;100.00;99990.44;4803857;29;20404;-88
2023/08/19 04:31:06;;;;;;;1.23;1.15;;;;;;;19.58;100.00;100005.81;4787451;29;20500;-89
2023/08/19 04:33:39;;;;;;;1.73;1.35;;;;;;;19.53;100.00;99998.88;4802465;29;20069;-88
2023/08/19 04:36:05;;;;;;;2.28;1.60;;;;;;;19.57;100.00;100003.53;4800422;29;20070;-89
2023/08/19 04:38:31;;;;;;;2.33;1.83;;;;;;;19.58;100.00;100005.03;4792282;29;20090;-88
2023/08/19 04:40:59;;;;;;;3.58;2.30;;;;;;;19.49;100.00;99981.44;4787666;29;20046;-88
2023/08/19 04:43:27;;;;;;;4.88;2.55;;;;;;;19.39;100.00;99988.53;4801867;29;20049;-88
2023/08/19 04:45:54;;;;;;;2.30;1.90;;;;;;;19.42;100.00;99998.78;4787349;29;20046;-88
2023/08/19 04:48:21;;;;;;;1.67;1.58;;;;;;;19.25;100.00;99988.66;4772158;29;20047;-88
2023/08/19 04:50:48;;;;;;;5.53;1.88;;;;;;;19.48;100.00;100024.16;4801567;29;20042;-88
2023/08/19 04:53:14;;;;;;;2.17;1.85;;;;;;;19.51;100.00;100029.56;4787164;29;20050;-88
2023/08/19 04:55:40;;;;;;;3.13;2.05;;;;;;;19.45;100.00;100003.41;4788187;29;20049;-88
2023/08/19 04:58:06;;;;;;;2.95;1.85;;;;;;;19.70;100.00;100032.00;4820080;29;20051;-88
2023/08/19 05:00:32;;;;;;;2.35;2.15;;;;;;;19.67;100.00;100024.56;4788291;29;20042;-88
2023/08/19 05:02:58;;;;;;;3.67;2.17;;;;;;;19.73;100.00;100033.84;4793802;29;20516;-90
2023/08/19 05:05:24;;;;;;;3.67;3.28;;;;;;;19.73;100.00;100022.59;4802001;29;20050;-88
2023/08/19 05:10:20;;;;;;;2.05;1.40;;;;;;;19.79;100.00;100029.00;4836089;29;20603;-88
2023/08/19 05:12:46;;;;;;;3.42;1.95;;;;;;;19.75;100.00;100025.66;4793279;29;20088;-89
2023/08/19 05:15:12;;;;;;;4.20;3.05;;;;;;;19.80;100.00;100019.28;4790151;29;20475;-89
2023/08/19 05:17:38;;;;;;;3.03;1.77;;;;;;;19.87;100.00;100021.66;4791152;29;20691;-88
2023/08/19 05:20:04;;;;;;;2.47;2.22;;;;;;;19.97;100.00;100023.00;4784638;29;20169;-88
2023/08/19 05:22:30;;;;;;;2.28;2.13;;;;;;;20.06;100.00;100022.78;4806030;29;20038;-88
2023/08/19 05:24:55;;;;;;;1.67;1.58;;;;;;;20.18;100.00;100034.91;4820481;29;20518;-88
2023/08/19 05:27:21;;;;;;;2.10;1.80;;;;;;;20.24;100.00;100032.88;4795516;29;20046;-88
2023/08/19 05:29:47;;;;;;;1.90;1.42;;;;;;;20.17;100.00;100005.19;4795167;29;20061;-89
2023/08/19 05:32:12;;;;;;;2.10;1.80;;;;;;;20.34;100.00;100034.25;4804386;29;20050;-87
2023/08/19 05:34:38;;;;;;;2.10;1.85;;;;;;;20.38;100.00;100046.81;4804204;29;20161;-88
2023/08/19 05:37:06;;;;;;;2.10;1.98;;;;;;;20.34;100.00;100043.47;4807977;29;20389;-88
2023/08/19 05:39:32;;;;;;;2.33;1.88;;;;;;;20.37;100.00;100053.75;4801709;29;20118;-88
2023/08/19 05:41:58;;;;;;;2.13;1.75;;;;;;;20.46;100.00;100070.41;4802299;29;20567;-88
2023/08/19 05:44:24;;;;;;;1.33;1.20;;;;;;;20.54;100.00;100069.97;4801832;29;20042;-88
2023/08/19 05:46:51;;;;;;;2.10;1.33;;;;;;;20.54;100.00;100070.72;4804940;29;20054;-88
2023/08/19 05:49:16;;;;;;;1.38;1.27;;;;;;;20.57;100.00;100072.53;4805286;29;20062;-88
2023/08/19 05:51:43;;;;;;;2.33;1.92;;;;;;;20.64;100.00;100071.28;4794254;29;20477;-88
2023/08/19 05:54:09;;;;;;;1.75;1.65;;;;;;;20.73;100.00;100079.53;4783355;29;20038;-89
2023/08/19 05:56:34;;;;;;;1.92;1.10;;;;;;;20.82;100.00;100082.13;4781117;29;20503;-88
2023/08/19 05:59:00;;;;;;;2.53;1.88;;;;;;;20.86;100.00;100082.66;4810618;29;20057;-88
2023/08/19 06:01:26;;;;;;;1.17;1.00;;;;;;;20.84;100.00;100073.91;4805293;29;20041;-87
2023/08/19 06:06:33;;;;;;;1.38;1.27;;;;;;;21.00;100.00;100087.31;4847712;29;20478;-87
2023/08/19 06:08:59;;;;;;;2.70;2.13;;;;;;;21.12;100.00;100093.78;4851610;29;20125;-88
2023/08/19 06:11:24;;;;;;;1.45;1.35;;;;;;;21.07;100.00;100103.72;4850137;29;20057;-87
2023/08/19 06:13:52;;;;;;;4.82;2.30;;;;;;;21.11;100.00;100120.44;4848172;29;20568;-87
2023/08/19 06:16:20;;;;;;;5.10;3.45;;;;;;;21.04;100.00;100109.63;4832884;29;20098;-86
2023/08/19 06:18:46;;;;;;;1.52;1.15;;;;;;;21.22;100.00;100135.38;4820284;29;20071;-89
2023/08/19 06:21:12;;;;;;;2.40;1.95;;;;;;;21.20;100.00;100126.63;4850751;29;20050;-87
2023/08/19 06:23:56;;;;;;;1.73;1.63;;;;;;;21.15;100.00;100102.00;4852117;29;20128;-88
2023/08/19 06:26:21;;;;;;;2.28;2.05;;;;;;;21.09;100.00;100091.94;4817178;29;20528;-88
2023/08/19 06:28:48;;;;;;;4.82;3.15;;;;;;;21.11;100.00;100112.72;4837085;29;20477;-88
2023/08/19 06:31:16;;;;;;;2.78;1.48;;;;;;;21.03;100.00;100102.47;4824536;29;20049;-88
2023/08/19 06:39:34;;;;;;;2.55;1.95;;;;;;;21.45;100.00;100130.53;4849914;29;20053;-86
2023/08/19 06:42:06;;;;;;;2.08;1.73;;;;;;;21.33;100.00;100098.72;4810428;29;20058;-85
2023/08/19 06:44:37;;;;;;;3.55;1.70;;;;;;;21.66;100.00;100105.69;4826236;29;20037;-87
2023/08/19 06:47:04;;;;;;;2.05;1.83;;;;;;;21.78;100.00;100112.88;4827459;29;20049;-87
2023/08/19 06:49:29;;;;;;;5.47;1.83;;;;;;;21.94;100.00;100126.28;4816088;29;20037;-88
2023/08/19 06:54:24;;;;;;;2.00;1.88;;;;;;;22.18;100.00;100115.22;4837092;29;20516;-87
2023/08/19 06:57:11;;;;;;;1.55;1.30;;;;;;;22.26;100.00;100119.06;4809000;29;20065;-86
2023/08/19 06:59:39;;;;;;;2.40;2.08;;;;;;;22.29;100.00;100134.97;4800452;29;20077;-86
2023/08/19 07:02:06;;;;;;;2.30;1.98;;;;;;;22.33;100.00;100126.22;4803259;29;20446;-86
2023/08/19 07:04:35;;;;;;;1.58;1.48;;;;;;;22.49;100.00;100133.13;4807699;29;20052;-87
2023/08/19 07:07:06;;;;;;;1.52;1.42;;;;;;;22.53;100.00;100133.63;4805994;29;20049;-86
2023/08/19 07:09:34;;;;;;;2.65;1.80;;;;;;;22.62;100.00;100119.22;4788711;29;20064;-86
2023/08/19 07:12:01;;;;;;;2.88;1.80;;;;;;;22.82;100.00;100133.06;4807553;29;20546;-86
2023/08/19 07:14:27;;;;;;;2.40;1.77;;;;;;;22.91;100.00;100134.84;4822104;29;20065;-87
2023/08/19 07:16:55;;;;;;;1.80;1.70;;;;;;;22.97;100.00;100122.22;4806386;29;20084;-87
2023/08/19 07:19:39;;;;;;;2.90;2.35;;;;;;;23.12;100.00;100131.16;4806618;29;20066;-86
2023/08/19 07:22:05;;;;;;;3.00;2.05;;;;;;;23.15;100.00;100121.63;4791064;29;20079;-87
2023/08/19 07:24:31;;;;;;;1.77;1.65;;;;;;;23.13;100.00;100124.19;4821080;29;20041;-86
2023/08/19 07:27:12;;;;;;;3.17;2.65;;;;;;;23.37;100.00;100136.97;4810107;29;20074;-96
2023/08/19 07:29:37;;;;;;;1.73;1.42;;;;;;;23.46;100.00;100139.50;4823716;29;20141;-88
2023/08/19 07:32:04;;;;;;;4.40;3.05;;;;;;;23.65;100.00;100146.84;4784135;29;20042;-87
2023/08/19 07:34:30;;;;;;;1.35;1.25;;;;;;;23.56;100.00;100135.06;4805787;29;20446;-87
2023/08/19 07:36:55;;;;;;;1.95;1.85;;;;;;;23.87;100.00;100150.78;4811260;29;20150;-88
2023/08/19 07:39:22;;;;;;;1.88;1.77;;;;;;;23.89;100.00;100137.66;4802102;29;20085;-87
2023/08/19 07:41:48;;;;;;;2.03;1.70;;;;;;;23.99;100.00;100147.34;4786607;29;20473;-88
2023/08/19 07:44:14;;;;;;;3.35;1.65;;;;;;;23.89;100.00;100134.84;4822966;29;20471;-88
2023/08/19 07:46:40;;;;;;;1.40;1.30;;;;;;;23.79;100.00;100144.16;4806381;29;20049;-87
2023/08/19 07:49:05;;;;;;;1.60;1.35;;;;;;;23.85;100.00;100136.41;4796078;29;20117;-87
2023/08/19 07:51:31;;;;;;;1.80;1.70;;;;;;;23.89;100.00;100119.91;4813701;29;20468;-87
2023/08/19 07:53:56;;;;;;;2.63;2.00;;;;;;;24.07;100.00;100119.22;4838800;29;20481;-88
2023/08/19 07:56:22;;;;;;;2.00;1.90;;;;;;;24.30;100.00;100142.50;4853695;29;20550;-87
2023/08/19 07:58:47;;;;;;;3.47;2.35;;;;;;;24.24;100.00;100128.38;4823420;29;20049;-87
2023/08/19 08:01:13;;;;;;;1.65;1.35;;;;;;;24.31;100.00;100129.84;4820452;29;20049;-87
2023/08/19 08:03:39;;;;;;;2.17;1.73;;;;;;;24.37;100.00;100144.75;4865071;29;20053;-87
2023/08/19 08:06:05;;;;;;;3.03;1.85;;;;;;;24.51;100.00;100152.06;4819887;23;20058;-89
2023/08/19 08:08:31;;;;;;;1.88;1.70;;;;;;;24.65;100.00;100162.25;4800899;29;20043;-87
2023/08/19 08:10:56;;;;;;;3.72;1.70;;;;;;;24.72;100.00;100164.47;4820258;29;20043;-87
2023/08/19 08:13:22;;;;;;;2.25;2.05;;;;;;;24.73;100.00;100174.53;4820218;29;20058;-87
2023/08/19 08:15:48;;;;;;;2.15;1.80;;;;;;;24.54;100.00;100162.38;4802948;29;20051;-87
2023/08/19 08:18:14;;;;;;;3.25;2.13;;;;;;;24.71;100.00;100179.22;4801727;29;20050;-87
2023/08/19 08:20:39;;;;;;;2.05;1.85;;;;;;;24.76;100.00;100179.13;4811401;29;20511;-87
2023/08/19 08:23:05;;;;;;;2.20;1.90;;;;;;;24.81;100.00;100178.31;4800088;29;20069;-87
2023/08/19 08:25:31;;;;;;;1.33;1.20;;;;;;;24.89;100.00;100182.13;4782496;29;20042;-87
2023/08/19 08:27:56;;;;;;;6.13;2.60;;;;;;;25.03;100.00;100172.41;4822725;29;20050;-87
2023/08/19 08:30:22;;;;;;;1.75;1.33;;;;;;;25.07;100.00;100169.28;4816950;29;20134;-86
2023/08/19 08:32:47;;;;;;;2.65;2.30;;;;;;;25.17;100.00;100169.66;4802256;29;20039;-87
2023/08/19 08:35:13;;;;;;;2.15;1.63;;;;;;;25.36;100.00;100178.97;4802435;29;20510;-87
2023/08/19 08:37:38;;;;;;;2.28;2.08;;;;;;;25.49;100.00;100179.03;4816998;29;20058;-88
2023/08/19 08:40:05;;;;;;;1.45;1.30;;;;;;;25.52;100.00;100163.75;4803996;29;20469;-87
2023/08/19 08:42:30;;;;;;;6.15;2.15;;;;;;;25.60;100.00;100164.72;4806583;29;20042;-87
2023/08/19 08:44:56;;;;;;;2.97;1.98;;;;;;;25.68;100.00;100171.31;4814315;29;20514;-87
2023/08/19 08:47:22;;;;;;;1.90;1.60;;;;;;;25.77;100.00;100173.00;4801828;29;20054;-87
2023/08/19 08:49:49;;;;;;;2.20;1.63;;;;;;;25.72;100.00;100176.69;4803889;29;20046;-87
2023/08/19 08:52:15;;;;;;;2.60;1.75;;;;;;;25.66;100.00;100179.63;4812981;29;20055;-87
2023/08/19 08:54:42;;;;;;;1.85;1.75;;;;;;;25.58;100.00;100173.00;4803665;29;20053;-87
2023/08/19 08:57:08;;;;;;;2.53;1.90;;;;;;;25.44;100.00;100162.84;4796597;29;20038;-87
2023/08/19 08:59:33;;;;;;;1.75;1.65;;;;;;;25.52;100.00;100177.97;4798897;29;20054;-87
2023/08/19 09:02:00;;;;;;;1.38;1.27;;;;;;;25.40;100.00;100174.50;4786362;29;20053;-87
2023/08/19 09:04:26;;;;;;;1.58;1.48;;;;;;;25.34;100.00;100181.56;4787052;29;20586;-87
2023/08/19 09:07:00;;;;;;;1.55;1.45;;;;;;;25.15;100.00;100183.63;4815078;29;20376;-85
2023/08/19 09:09:28;;;;;;;0.75;0.75;;;;;;;24.98;100.00;100172.47;4818664;29;20030;-87
2023/08/19 09:11:54;;;;;;;0.80;0.80;;;;;;;25.04;100.00;100179.63;4811471;29;20443;-87
2023/08/19 09:14:21;;;;;;;2.75;1.80;;;;;;;25.01;100.00;100177.09;4811457;29;20073;-87
2023/08/19 09:16:47;;;;;;;2.08;1.70;;;;;;;24.87;100.00;100170.53;4797335;29;20051;-87
2023/08/19 09:19:13;;;;;;;2.30;1.65;;;;;;;24.87;100.00;100167.69;4804592;29;20587;-87
2023/08/19 09:21:39;;;;;;;1.50;1.40;;;;;;;24.86;100.00;100177.53;4811406;29;20050;-86
2023/08/19 09:24:05;;;;;;;0.88;0.82;;;;;;;24.85;100.00;100178.81;4815787;29;20519;-87
2023/08/19 09:26:30;;;;;;;0.38;0.38;;;;;;;25.17;100.00;100172.50;4802522;29;20154;-87
2023/08/19 09:28:57;;;;;;;1.83;1.10;;;;;;;25.23;100.00;100173.22;4805803;29;20057;-87
2023/08/19 09:31:24;;;;;;;2.42;1.38;;;;;;;25.16;100.00;100170.97;4803638;29;20050;-88
2023/08/19 09:33:52;;;;;;;29.17;3.03;;;;;;;25.18;100.00;100168.38;4788002;29;20038;-87
2023/08/19 09:36:21;;;;;;;1.40;1.30;;;;;;;25.30;100.00;100170.53;4801092;29;20042;-87
2023/08/19 09:38:52;;;;;;;1.58;1.38;;;;;;;25.46;100.00;100171.59;4817927;29;20044;-87
2023/08/19 09:41:17;;;;;;;0.85;0.85;;;;;;;25.48;100.00;100171.81;4815535;29;20047;-87
2023/08/19 09:43:46;;;;;;;4.78;1.17;;;;;;;25.57;100.00;100168.63;4802018;29;20541;-86
2023/08/19 09:46:14;;;;;;;1.17;1.05;;;;;;;25.60;100.00;100170.38;4820213;29;20050;-87
2023/08/19 09:48:39;;;;;;;2.45;1.95;;;;;;;25.55;100.00;100165.56;4790504;29;20069;-86
2023/08/19 09:51:08;;;;;;;1.42;1.00;;;;;;;25.52;100.00;100172.28;4802949;29;20054;-87
2023/08/19 09:53:36;;;;;;;1.45;1.05;;;;;;;25.54;100.00;100181.06;4801313;29;20048;-86
2023/08/19 09:56:02;;;;;;;1.52;1.42;;;;;;;25.61;100.00;100188.97;4800950;29;20071;-87
2023/08/19 09:58:27;;;;;;;3.08;1.38;;;;;;;25.57;100.00;100165.78;4818553;29;20050;-87
2023/08/19 10:00:53;;;;;;;2.97;1.58;;;;;;;25.55;100.00;100173.31;4800146;29;20051;-87
2023/08/19 10:03:19;;;;;;;1.63;1.52;;;;;;;25.85;100.00;100177.50;4812771;29;21436;-86
2023/08/19 10:05:50;;;;;;;1.55;1.27;;;;;;;26.15;100.00;100165.94;4821987;29;20042;-87
2023/08/19 10:08:20;;;;;;;1.63;1.52;;;;;;;26.61;100.00;100187.38;4817182;29;20046;-86
2023/08/19 10:10:46;;;;;;;1.75;1.65;;;;;;;26.64;100.00;100182.69;4823113;29;20047;-87
2023/08/19 10:13:13;;;;;;;1.23;1.13;;;;;;;26.61;100.00;100187.38;4807322;29;20072;-87
2023/08/19 10:15:40;;;;;;;1.75;1.35;;;;;;;26.85;100.00;100181.50;4825017;29;20117;-87
2023/08/19 10:18:14;;;;;;;6.22;2.08;;;;;;;27.10;100.00;100172.75;4816040;29;20046;-87
2023/08/19 10:20:40;;;;;;;1.95;1.50;;;;;;;27.05;100.00;100170.78;4813044;29;20054;-88
2023/08/19 10:23:07;;;;;;;0.60;0.60;;;;;;;27.52;100.00;100180.16;4817700;29;20065;-87
2023/08/19 10:25:32;;;;;;;1.73;1.63;;;;;;;27.51;100.00;100181.47;4828791;29;20491;-88
2023/08/19 10:28:06;;;;;;;1.30;0.93;;;;;;;27.88;100.00;100173.91;4815578;29;20118;-88
2023/08/19 10:30:32;;;;;;;1.63;0.80;;;;;;;28.20;99.44;100172.34;4812126;29;20054;-88
2023/08/19 10:33:05;;;;;;;2.10;1.60;;;;;;;28.32;92.82;100169.97;4826468;29;20769;-88
2023/08/19 10:35:51;;;;;;;;;;;;;;;27.92;96.70;100180.03;4814516;29;20507;-89
2023/08/19 10:38:17;;;;;;;1.02;1.02;;;;;;;27.98;97.61;100177.81;4815461;29;20018;-88
2023/08/19 10:40:42;;;;;;;0.55;0.47;;;;;;;28.24;92.91;100174.84;4814290;29;20050;-88
2023/08/19 10:43:08;;;;;;;1.23;1.13;;;;;;;28.10;92.58;100179.88;4818327;29;20082;-88
2023/08/19 10:45:35;;;;;;;0.85;0.80;;;;;;;28.00;96.16;100175.16;4798900;29;20026;-88
2023/08/19 10:48:02;;;;;;;1.58;1.17;;;;;;;28.16;95.19;100165.47;4826497;29;20050;-88
2023/08/19 10:50:34;;;;;;;0.50;0.50;;;;;;;28.20;96.77;100166.66;4815365;29;20129;-88
2023/08/19 10:53:03;;;;;;;1.40;1.00;;;;;;;28.61;95.56;100159.34;4817211;29;20055;-88
2023/08/19 10:55:54;;;;;;;2.53;1.17;;;;;;;29.06;89.27;100173.19;4815167;29;20038;-88
2023/08/19 10:58:23;;;;;;;1.85;1.27;;;;;;;29.20;82.30;100171.72;4833724;29;20050;-88
2023/08/19 11:00:49;;;;;;;1.13;1.00;;;;;;;29.02;82.91;100181.34;4830917;29;20167;-88
2023/08/19 11:03:15;;;;;;;1.35;1.08;;;;;;;29.40;85.56;100182.31;4815375;29;20125;-88
2023/08/19 11:05:51;;;;;;;2.50;1.13;;;;;;;29.28;84.59;100178.25;4820063;29;20055;-88
2023/08/19 11:08:17;;;;;;;1.25;1.15;;;;;;;29.78;79.33;100193.13;4818456;29;20510;-88
2023/08/19 11:10:46;;;;;;;1.27;0.95;;;;;;;29.53;78.07;100187.13;4827633;29;20046;-88
2023/08/19 11:13:16;;;;;;;1.42;1.33;;;;;;;29.55;78.11;100182.41;4805812;29;20050;-88
2023/08/19 11:15:42;;;;;;;0.90;0.90;;;;;;;30.01;78.50;100177.56;4806269;29;20042;-87
2023/08/19 11:18:07;;;;;;;2.08;1.38;;;;;;;29.91;74.14;100172.97;4832892;29;20607;-88
2023/08/19 11:20:33;;;;;;;0.98;0.85;;;;;;;29.91;74.78;100170.13;4802815;29;20053;-88
2023/08/19 11:23:00;;;;;;;1.25;1.13;;;;;;;30.02;70.50;100178.34;4811304;29;20107;-88
2023/08/19 11:25:36;;;;;;;1.35;1.00;;;;;;;30.72;72.28;100174.94;4812298;29;20482;-88
2023/08/19 11:28:02;;;;;;;0.75;0.75;;;;;;;30.51;73.39;100180.88;4830314;29;20410;-88
2023/08/19 11:30:28;;;;;;;1.33;1.13;;;;;;;30.74;73.49;100178.75;4801058;29;20047;-88
2023/08/19 11:32:54;;;;;;;0.98;0.98;;;;;;;30.67;70.72;100178.75;4810776;29;20154;-87
2023/08/19 11:35:19;;;;;;;1.42;1.08;;;;;;;30.58;74.04;100170.75;4833614;29;20077;-90